»·PEaware :: DAL1228 KSNA-KSLC

DAL1228 :: KSNA-KSLC

FLIGHT INFORMATION

Flight Status: Arrived
Operator:
Delta Air Lines
More flights by this operator :: More flights under this callsign
Pilot: Kevin M. (7)
Aircraft: BOEING 737-800
(B738)
More flights by this aircraft type
Origin: KSNA John Wayne-Orange Co
United States
Destination: KSLC Salt Lake City Intl
United States
More flights between these airports :: More routes between these airports
Route: FINZZ2 BEALE WINEN MLF DELTA5
File this flight plan on PilotEdge
Remarks:
Altitude:
(Current/Filed)
35,000ft
Speed:
(Current/Filed)
470kts
Departed: 11-Oct-18 07:33 AM
Arrived: 11-Oct-18 08:59 AM
Distance/Time
Traveled:
511nm/1:26
Distance/Time
To Go:
Arrived

Flight Plot

Page will automatically refresh every two minutes.

Flight plan parsing failed; only flown route is shown


Map Options




Map Legend


Flown Route
Filed Route
Departure Airport
Arrival Airport
Navaid (VOR, NDB)
Fix

Horizontal Profiles

Position Reports

Time Latitude Longitude Heading Altitude Ground
Speed
11-Oct-18 07:19 33.678755 -117.862741 118 64ft 0kts
11-Oct-18 07:20 33.678755 -117.862741 118 64ft 0kts
11-Oct-18 07:21 33.678755 -117.862741 118 64ft 0kts
11-Oct-18 07:22 33.678755 -117.862741 118 64ft 0kts
11-Oct-18 07:23 33.678755 -117.862741 118 64ft 0kts
11-Oct-18 07:24 33.678755 -117.862741 118 64ft 0kts
11-Oct-18 07:25 33.678755 -117.862741 118 64ft 0kts
11-Oct-18 07:26 33.678755 -117.862741 118 64ft 0kts
11-Oct-18 07:27 33.678829 -117.862911 110 64ft 2kts
11-Oct-18 07:28 33.678718 -117.863596 47 64ft 2kts
11-Oct-18 07:29 33.678520 -117.863769 27 64ft 0kts
11-Oct-18 07:30 33.678520 -117.863769 27 64ft 0kts
11-Oct-18 07:31 33.678520 -117.863769 27 64ft 0kts
11-Oct-18 07:32 33.680618 -117.862997 297 64ft 2kts
11-Oct-18 07:33 33.680637 -117.863042 297 64ft 0kts
11-Oct-18 07:34 33.681185 -117.865347 208 64ft 0kts
11-Oct-18 07:35 33.671091 -117.871730 207 64ft 149kts
11-Oct-18 07:36 33.628429 -117.889307 187 2174ft 194kts
11-Oct-18 07:37 33.560828 -117.905222 208 2687ft 299kts
11-Oct-18 07:38 33.528345 -117.985890 286 5942ft 284kts
11-Oct-18 07:39 33.557568 -118.066974 294 8856ft 276kts
11-Oct-18 07:40 33.609732 -118.115369 1 10719ft 301kts
11-Oct-18 07:41 33.690168 -118.072800 24 11154ft 366kts
11-Oct-18 07:42 33.779892 -118.019779 24 11913ft 397kts
11-Oct-18 07:43 33.875022 -117.963825 24 13227ft 406kts
11-Oct-18 07:44 33.967579 -117.891576 36 14479ft 418kts
11-Oct-18 07:45 34.057955 -117.807440 35 15635ft 427kts
11-Oct-18 07:46 34.132676 -117.717455 50 18017ft 402kts
11-Oct-18 07:47 34.204873 -117.607961 49 18221ft 438kts
11-Oct-18 07:48 34.282696 -117.491365 49 18799ft 455kts
11-Oct-18 07:49 34.363395 -117.370378 48 20537ft 469kts
11-Oct-18 07:50 34.443988 -117.249353 49 22226ft 484kts
11-Oct-18 07:51 34.529290 -117.120878 49 23839ft 498kts
11-Oct-18 07:52 34.618929 -116.989204 48 25208ft 516kts
11-Oct-18 07:53 34.711926 -116.853313 49 26523ft 532kts
11-Oct-18 07:54 34.806963 -116.713778 49 27940ft 543kts
11-Oct-18 07:55 34.905038 -116.574724 45 29720ft 542kts
11-Oct-18 07:56 35.005928 -116.440269 45 31651ft 535kts
11-Oct-18 07:57 35.100903 -116.312907 44 33222ft 530kts
11-Oct-18 07:58 35.195419 -116.185703 44 34474ft 527kts
11-Oct-18 07:59 35.292891 -116.053887 44 34933ft 524kts
11-Oct-18 08:00 35.390213 -115.921688 44 34936ft 524kts
11-Oct-18 08:01 35.487180 -115.789400 44 34929ft 524kts
11-Oct-18 08:02 35.584000 -115.656771 44 34922ft 524kts
11-Oct-18 08:03 35.680659 -115.523825 44 34923ft 524kts
11-Oct-18 08:04 35.777178 -115.390508 44 34925ft 524kts
11-Oct-18 08:05 35.870500 -115.261213 45 34914ft 524kts
11-Oct-18 08:06 35.966495 -115.127737 45 34918ft 527kts
11-Oct-18 08:07 36.062929 -114.993055 45 34938ft 532kts
11-Oct-18 08:08 36.156814 -114.861374 44 34966ft 533kts
11-Oct-18 08:09 36.272631 -114.756274 24 34975ft 520kts
11-Oct-18 08:10 36.395051 -114.665833 25 34994ft 520kts
11-Oct-18 08:11 36.517922 -114.573651 25 35006ft 521kts
11-Oct-18 08:12 36.639865 -114.481176 25 35007ft 520kts
11-Oct-18 08:13 36.752266 -114.395855 25 34995ft 520kts
11-Oct-18 08:14 36.853182 -114.319250 25 34957ft 520kts
11-Oct-18 08:15 36.972448 -114.228802 25 34989ft 520kts
11-Oct-18 08:16 37.094146 -114.136473 26 34991ft 507kts
11-Oct-18 08:17 37.210882 -114.047948 26 34989ft 505kts
11-Oct-18 08:18 37.330545 -113.957234 26 34990ft 505kts
11-Oct-18 08:19 37.450344 -113.866457 26 34991ft 505kts
11-Oct-18 08:20 37.570323 -113.775577 26 34993ft 505kts
11-Oct-18 08:21 37.689059 -113.685668 26 35026ft 504kts
11-Oct-18 08:22 37.809013 -113.594862 26 35050ft 504kts
11-Oct-18 08:23 37.929129 -113.503711 28 35050ft 505kts
11-Oct-18 08:24 38.035757 -113.386138 38 35052ft 511kts
11-Oct-18 08:25 38.133844 -113.273919 38 35037ft 512kts
11-Oct-18 08:26 38.238066 -113.154291 38 35026ft 512kts
11-Oct-18 08:27 38.342674 -113.034179 35 35025ft 510kts
11-Oct-18 08:28 38.465863 -112.954973 17 35027ft 502kts
11-Oct-18 08:29 38.589709 -112.889814 17 35029ft 505kts
11-Oct-18 08:30 38.712108 -112.824548 17 35030ft 508kts
11-Oct-18 08:31 38.841905 -112.754881 17 35033ft 509kts
11-Oct-18 08:32 38.971903 -112.684763 18 35051ft 505kts
11-Oct-18 08:33 39.100078 -112.615310 19 35061ft 502kts
11-Oct-18 08:34 39.193546 -112.564448 19 35056ft 502kts
11-Oct-18 08:35 39.321202 -112.497292 11 35061ft 498kts
11-Oct-18 08:36 39.452988 -112.454161 9 34889ft 489kts
11-Oct-18 08:37 39.580805 -112.412135 10 29867ft 494kts
11-Oct-18 08:38 39.711338 -112.368792 11 24885ft 491kts
11-Oct-18 08:39 39.830039 -112.329122 12 21901ft 469kts
11-Oct-18 08:40 39.942000 -112.291564 12 19355ft 446kts
11-Oct-18 08:41 40.050177 -112.255155 12 17023ft 426kts
11-Oct-18 08:42 40.149702 -112.221517 13 15796ft 422kts
11-Oct-18 08:43 40.245448 -112.189048 13 14663ft 415kts
11-Oct-18 08:44 40.336423 -112.158107 13 13828ft 408kts
11-Oct-18 08:45 40.428125 -112.126830 13 13295ft 406kts
11-Oct-18 08:46 40.526895 -112.093143 13 12394ft 391kts
11-Oct-18 08:47 40.634365 -112.075867 359 11024ft 387kts
11-Oct-18 08:48 40.740729 -112.088737 353 10991ft 386kts
11-Oct-18 08:49 40.844429 -112.101696 353 10460ft 349kts
11-Oct-18 08:50 40.935293 -112.112626 354 9521ft 314kts
11-Oct-18 08:51 41.018743 -112.121920 354 8987ft 294kts
11-Oct-18 08:52 41.099583 -112.129165 7 8971ft 282kts
11-Oct-18 08:53 41.145148 -112.059571 87 8994ft 290kts
11-Oct-18 08:54 41.094824 -112.008317 191 8981ft 239kts
11-Oct-18 08:55 41.038048 -112.024952 180 8909ft 197kts
11-Oct-18 08:56 40.984587 -112.019737 176 7457ft 193kts
11-Oct-18 08:57 40.932628 -112.014701 174 6447ft 184kts
11-Oct-18 08:58 40.885113 -112.009284 172 5660ft 182kts
11-Oct-18 08:59 40.845632 -112.004121 175 5027ft 166kts
11-Oct-18 09:00 40.794615 -111.997758 175 4235ft 117kts
11-Oct-18 09:01 40.787011 -111.993871 39 4235ft 6kts
11-Oct-18 09:02 40.791054 -111.992929 91 4235ft 24kts
11-Oct-18 09:03 40.789671 -111.984912 156 4235ft 1kts

Navigation Log

Ident Type
Flight plan parsing failed, navigation log unavailable